Franklin, PA

4:32 AM EST on February 08, 2016 (GMT -0500)
Venango Regional

Weather History for KFKL - December, 2012

Change the Weather History Date:

Sunday, December 30, 2012

  Actual Average Record
Temperature  
Mean Temperature 24 °F -  
Max Temperature 28 °F - - ()
Min Temperature 19 °F - - ()
Degree Days  
Heating Degree Days 42    
Moisture  
Dew Point 20 °F    
Average Humidity 82    
Maximum Humidity 93    
Minimum Humidity 69    
Precipitation  
Precipitation 0.02 in - - ()
Sea Level Pressure  
Sea Level Pressure 30.15 in    
Wind  
Wind Speed 11 mph (West)    
Max Wind Speed 17 mph    
Max Gust Speed 26 mph    
Visibility 7 miles    
Events      
T = Trace of Precipitation, MM = Missing Value Source: NWS Daily Summary

Daily Weather History Graph

Daily Weather History Graph

Search for Another Location

Airport or City:

Trip Planner

Search our weather history database for the weather conditions in past years. The results will help you decide how hot, cold, wet, or windy it might be!

Date:

Astronomy

Dec. 30, 2012 Rise Set
Actual Time 7:45 AM EST 4:59 PM EST
Civil Twilight 7:14 AM EST 5:30 PM EST
Nautical Twilight 6:39 AM EST 6:05 PM EST
Astronomical Twilight 6:05 AM EST 6:38 PM EST
Moon 7:30 PM EST (12/30) 8:51 AM EST (12/30)
Length of Visible Light 10h 16m
Length of Day
9h 13m
Waning Gibbous, 95% of the Moon is Illuminated
Dec 30
Waning Gibbous
Jan 4
Last Quarter
Jan 11
New
Jan 18
First Quarter
Jan 26
Full

Hourly Weather History & Observations

Time (EST) Temp. Windchill Dew Point Humidity Pressure Visibility Wind Dir Wind Speed Gust Speed Precip Events Conditions
12:15 AM 28.4 °F 19.7 °F 24.8 °F 86% 29.86 in 7.0 mi West 9.2 mph - N/A   Overcast
12:35 AM 26.6 °F 17.5 °F 24.8 °F 93% 29.86 in 5.0 mi West 9.2 mph - N/A   Overcast
12:55 AM 26.6 °F 18.2 °F 24.8 °F 93% 29.87 in 10.0 mi WNW 8.1 mph - N/A   Overcast
1:15 AM 28.4 °F 21.2 °F 24.8 °F 86% 29.88 in 7.0 mi WNW 6.9 mph 16.1 mph N/A   Overcast
1:35 AM 26.6 °F 16.2 °F 24.8 °F 93% 29.89 in 4.0 mi WNW 11.5 mph - N/A   Overcast
1:55 AM 26.6 °F 20.0 °F 24.8 °F 93% 29.90 in 1.8 mi NW 5.8 mph - N/A   Overcast
2:15 AM 26.6 °F 19.1 °F 24.8 °F 93% 29.92 in 1.8 mi NW 6.9 mph - N/A   Overcast
2:35 AM 26.6 °F 18.2 °F 24.8 °F 93% 29.93 in 3.0 mi WNW 8.1 mph - N/A   Overcast
2:55 AM 26.6 °F 15.7 °F 24.8 °F 93% 29.94 in 4.0 mi WNW 12.7 mph 19.6 mph N/A   Overcast
3:15 AM 26.6 °F 17.5 °F 23.0 °F 86% 29.95 in 5.0 mi WNW 9.2 mph 19.6 mph N/A   Overcast
3:35 AM 26.6 °F 15.7 °F 23.0 °F 86% 29.96 in 5.0 mi WNW 12.7 mph 25.3 mph N/A   Overcast
3:55 AM 26.6 °F 15.7 °F 21.2 °F 80% 29.97 in 3.0 mi WNW 12.7 mph 24.2 mph N/A   Overcast
4:15 AM 24.8 °F 12.4 °F 21.2 °F 86% 29.99 in 7.0 mi WNW 15.0 mph 26.5 mph N/A   Overcast
4:35 AM 24.8 °F 11.5 °F 19.4 °F 80% 30.00 in 10.0 mi WNW 17.3 mph 26.5 mph N/A   Overcast
4:55 AM 24.8 °F 13.4 °F 17.6 °F 74% 30.01 in 10.0 mi WNW 12.7 mph 21.9 mph N/A   Overcast
5:15 AM 24.8 °F 13.4 °F 17.6 °F 74% 30.02 in 10.0 mi WNW 12.7 mph 20.7 mph N/A   Overcast
5:35 AM 24.8 °F 14.0 °F 17.6 °F 74% 30.03 in 10.0 mi WNW 11.5 mph 20.7 mph N/A   Overcast
5:55 AM 24.8 °F 12.4 °F 17.6 °F 74% 30.04 in 10.0 mi WNW 15.0 mph 19.6 mph N/A   Overcast
6:15 AM 24.8 °F 12.9 °F 17.6 °F 74% 30.06 in 10.0 mi WNW 13.8 mph 19.6 mph N/A   Overcast
6:35 AM 24.8 °F 12.4 °F 15.8 °F 69% 30.08 in 10.0 mi WNW 15.0 mph 21.9 mph N/A   Overcast
6:55 AM 24.8 °F 14.6 °F 17.6 °F 74% 30.09 in 10.0 mi WNW 10.4 mph 19.6 mph N/A   Overcast
7:15 AM 24.8 °F 13.4 °F 17.6 °F 74% 30.11 in 10.0 mi West 12.7 mph 18.4 mph N/A   Overcast
7:35 AM 24.8 °F 14.6 °F 17.6 °F 74% 30.11 in 10.0 mi WNW 10.4 mph 16.1 mph N/A   Overcast
7:55 AM 24.8 °F 12.9 °F 17.6 °F 74% 30.13 in 10.0 mi West 13.8 mph 18.4 mph N/A   Overcast
8:15 AM 24.8 °F 15.3 °F 17.6 °F 74% 30.14 in 10.0 mi WNW 9.2 mph 20.7 mph N/A   Overcast
8:35 AM 24.8 °F 15.3 °F 19.4 °F 80% 30.15 in 10.0 mi West 9.2 mph 18.4 mph N/A   Overcast
8:55 AM 24.8 °F 14.0 °F 19.4 °F 80% 30.16 in 8.0 mi West 11.5 mph 17.3 mph N/A   Overcast
9:15 AM 24.8 °F 14.0 °F 19.4 °F 80% 30.17 in 4.0 mi West 11.5 mph 16.1 mph N/A   Overcast
9:35 AM 24.8 °F 14.6 °F 19.4 °F 80% 30.18 in 5.0 mi West 10.4 mph 16.1 mph N/A   Overcast
9:55 AM 24.8 °F 14.0 °F 21.2 °F 86% 30.19 in 4.0 mi West 11.5 mph 18.4 mph N/A   Overcast
10:15 AM 24.8 °F 13.4 °F 21.2 °F 86% 30.20 in 7.0 mi WNW 12.7 mph 17.3 mph N/A   Overcast
10:35 AM 26.6 °F 15.2 °F 21.2 °F 80% 30.20 in 5.0 mi West 13.8 mph 20.7 mph N/A   Overcast
10:55 AM 26.6 °F 15.7 °F 21.2 °F 80% 30.20 in 5.0 mi West 12.7 mph 21.9 mph N/A   Overcast
11:15 AM 26.6 °F 15.2 °F 21.2 °F 80% 30.20 in 10.0 mi West 13.8 mph 19.6 mph N/A   Overcast
11:35 AM 26.6 °F 15.7 °F 21.2 °F 80% 30.21 in 9.0 mi West 12.7 mph 20.7 mph N/A   Overcast
11:55 AM 26.6 °F 14.7 °F 23.0 °F 86% 30.21 in 4.0 mi West 15.0 mph - N/A   Overcast
12:15 PM 26.6 °F 16.2 °F 23.0 °F 86% 30.20 in 1.2 mi West 11.5 mph 20.7 mph N/A   Overcast
12:35 PM 26.6 °F 15.2 °F 23.0 °F 86% 30.20 in 2.5 mi West 13.8 mph - N/A   Overcast
12:55 PM 26.6 °F 15.7 °F 23.0 °F 86% 30.20 in 3.0 mi West 12.7 mph - N/A   Overcast
1:15 PM 26.6 °F 14.7 °F 23.0 °F 86% 30.19 in 2.0 mi West 15.0 mph - N/A   Overcast
1:35 PM 26.6 °F 16.8 °F 23.0 °F 86% 30.19 in 3.0 mi West 10.4 mph - N/A   Overcast
1:55 PM 26.6 °F 16.8 °F 23.0 °F 86% 30.19 in 4.0 mi West 10.4 mph - N/A   Overcast
2:15 PM 26.6 °F 16.2 °F 21.2 °F 80% 30.20 in 3.0 mi West 11.5 mph 17.3 mph N/A   Overcast
2:35 PM 26.6 °F 15.7 °F 21.2 °F 80% 30.22 in 3.0 mi West 12.7 mph 18.4 mph N/A   Overcast
2:55 PM 26.6 °F 15.2 °F 21.2 °F 80% 30.22 in 3.0 mi West 13.8 mph 21.9 mph N/A   Overcast
3:15 PM 26.6 °F 15.2 °F 21.2 °F 80% 30.23 in 3.0 mi West 13.8 mph - N/A   Overcast
3:35 PM 26.6 °F 15.7 °F 21.2 °F 80% 30.24 in 3.0 mi West 12.7 mph - N/A   Overcast
3:55 PM 26.6 °F 15.7 °F 21.2 °F 80% 30.24 in 5.0 mi West 12.7 mph - N/A   Overcast
4:15 PM 24.8 °F 12.9 °F 21.2 °F 86% 30.25 in 9.0 mi West 13.8 mph 19.6 mph N/A   Overcast
4:35 PM 24.8 °F 14.0 °F 19.4 °F 80% 30.25 in 10.0 mi West 11.5 mph - N/A   Overcast
4:55 PM 24.8 °F 14.6 °F 19.4 °F 80% 30.26 in 10.0 mi WSW 10.4 mph - N/A   Overcast
5:15 PM 24.8 °F 14.0 °F 19.4 °F 80% 30.26 in 10.0 mi WSW 11.5 mph - N/A   Overcast
5:35 PM 24.8 °F 15.3 °F 17.6 °F 74% 30.26 in 10.0 mi West 9.2 mph 21.9 mph N/A   Overcast
5:55 PM 23.0 °F 12.4 °F 17.6 °F 80% 30.26 in 10.0 mi SW 10.4 mph 19.6 mph N/A   Overcast
6:15 PM 23.0 °F 11.7 °F 17.6 °F 80% 30.25 in 10.0 mi WSW 11.5 mph - N/A   Overcast
6:35 PM 23.0 °F 14.7 °F 17.6 °F 80% 30.25 in 10.0 mi WSW 6.9 mph - N/A   Overcast
6:55 PM 23.0 °F 13.1 °F 17.6 °F 80% 30.26 in 10.0 mi SW 9.2 mph - N/A   Overcast
7:15 PM 23.0 °F 11.7 °F 17.6 °F 80% 30.25 in 10.0 mi WSW 11.5 mph 16.1 mph N/A   Overcast
7:35 PM 23.0 °F 13.1 °F 17.6 °F 80% 30.26 in 10.0 mi WSW 9.2 mph - N/A   Overcast
7:55 PM 23.0 °F 13.1 °F 17.6 °F 80% 30.26 in 10.0 mi WSW 9.2 mph - N/A   Overcast
8:15 PM 23.0 °F 14.7 °F 17.6 °F 80% 30.26 in 10.0 mi SW 6.9 mph - N/A   Overcast
8:35 PM 23.0 °F 13.9 °F 17.6 °F 80% 30.27 in 10.0 mi WSW 8.1 mph - N/A   Overcast
8:55 PM 21.2 °F 7.8 °F 17.6 °F 86% 30.26 in 10.0 mi WSW 15.0 mph 19.6 mph N/A   Overcast
9:15 PM 21.2 °F 7.3 °F 15.8 °F 80% 30.26 in 10.0 mi SW 16.1 mph 20.7 mph N/A   Overcast
9:35 PM 21.2 °F 7.3 °F 15.8 °F 80% 30.26 in 10.0 mi SW 16.1 mph 24.2 mph N/A   Overcast
9:55 PM 21.2 °F 9.5 °F 15.8 °F 80% 30.26 in 10.0 mi SW 11.5 mph 16.1 mph N/A   Overcast
10:15 PM 21.2 °F 10.9 °F 15.8 °F 80% 30.27 in 10.0 mi WSW 9.2 mph 24.2 mph N/A   Overcast
10:35 PM 21.2 °F 8.3 °F 15.8 °F 80% 30.27 in 10.0 mi WSW 13.8 mph 19.6 mph N/A   Overcast
10:55 PM 21.2 °F 10.9 °F 15.8 °F 80% 30.27 in 10.0 mi WSW 9.2 mph 17.3 mph N/A   Overcast
11:15 PM 19.4 °F 6.6 °F 15.8 °F 86% 30.27 in 10.0 mi SW 12.7 mph 17.3 mph N/A   Overcast
11:35 PM 19.4 °F 6.6 °F 15.8 °F 86% 30.26 in 10.0 mi WSW 12.7 mph - N/A   Scattered Clouds
11:55 PM 19.4 °F 7.9 °F 14.0 °F 80% 30.26 in 10.0 mi SW 10.4 mph - N/A   Partly Cloudy